Time;durP1;ratioP1;P1;durP2;ratioP2;P2;SDS_P1;SDS_P2;PMS_P1;PMS_P2;Temp;Humidity;BMP_temperature;BMP_pressure;BME280_temperature;BME280_humidity;BME280_pressure;Samples;Min_cycle;Max_cycle;Signal;HPM_P1;HPM_P2
2023/06/27 00:02:26;;;;;;;8.40;2.87;;;16.10;99.90;;;;;;5080490;28;20185;-67
2023/06/27 00:04:52;;;;;;;10.00;3.77;;;16.00;99.90;;;;;;5095975;28;20192;-67
2023/06/27 00:07:18;;;;;;;9.50;3.73;;;16.00;99.90;;;;;;5095024;28;20404;-68
2023/06/27 00:09:44;;;;;;;5.20;2.80;;;15.90;99.90;;;;;;5096122;28;20238;-66
2023/06/27 00:12:10;;;;;;;4.60;2.80;;;15.90;99.90;;;;;;5092959;28;20181;-66
2023/06/27 00:14:37;;;;;;;5.23;3.30;;;15.80;99.90;;;;;;5091599;28;20212;-67
2023/06/27 00:17:07;;;;;;;4.23;2.80;;;15.80;99.90;;;;;;5095920;28;20638;-66
2023/06/27 00:19:32;;;;;;;7.13;3.87;;;15.80;99.90;;;;;;5095890;28;20400;-66
2023/06/27 00:21:58;;;;;;;5.50;3.17;;;15.80;99.90;;;;;;5094653;28;20445;-67
2023/06/27 00:24:24;;;;;;;6.90;3.10;;;15.70;99.90;;;;;;5076323;28;20688;-67
2023/06/27 00:26:50;;;;;;;6.83;3.40;;;15.70;99.90;;;;;;5078012;28;20166;-67
2023/06/27 00:29:16;;;;;;;7.37;2.67;;;15.70;99.90;;;;;;5075499;28;20566;-66
2023/06/27 00:31:41;;;;;;;5.73;2.97;;;15.70;99.90;;;;;;5071774;28;20471;-67
2023/06/27 00:34:07;;;;;;;9.93;2.83;;;15.70;99.90;;;;;;5094803;28;20239;-65
2023/06/27 00:36:33;;;;;;;6.83;2.83;;;15.70;99.90;;;;;;5095720;28;20748;-66
2023/06/27 00:38:58;;;;;;;8.43;3.20;;;15.70;99.90;;;;;;5094324;28;20170;-67
2023/06/27 00:41:24;;;;;;;4.70;3.60;;;15.70;99.90;;;;;;5076000;28;20201;-66
2023/06/27 00:43:49;;;;;;;6.00;2.50;;;15.50;99.90;;;;;;5095351;28;20193;-66
2023/06/27 00:46:40;;;;;;;9.40;2.93;;;15.50;99.90;;;;;;5095064;28;20630;-66
2023/06/27 00:49:08;;;;;;;7.20;3.30;;;15.40;99.90;;;;;;5081460;28;20173;-66
2023/06/27 00:51:34;;;;;;;8.10;3.60;;;15.40;99.90;;;;;;5093980;28;20421;-66
2023/06/27 00:54:00;;;;;;;6.93;3.40;;;15.40;99.90;;;;;;5094307;28;20439;-66
2023/06/27 00:56:27;;;;;;;3.30;2.73;;;15.40;99.90;;;;;;5085514;28;20420;-66
2023/06/27 00:59:00;;;;;;;5.57;2.70;;;15.40;99.90;;;;;;5074613;28;20171;-66
2023/06/27 01:01:29;;;;;;;8.23;3.00;;;15.40;99.90;;;;;;5073579;28;20502;-67
2023/06/27 01:03:55;;;;;;;7.80;2.77;;;15.30;99.90;;;;;;5074130;28;20420;-66
2023/06/27 01:07:07;;;;;;;3.00;2.70;;;15.30;99.90;;;;;;5093296;28;20423;-69
2023/06/27 01:09:52;;;;;;;7.50;2.93;;;15.30;99.90;;;;;;5065345;28;20422;-66
2023/06/27 01:12:32;;;;;;;8.80;3.13;;;15.20;99.90;;;;;;5074790;28;20515;-67
2023/06/27 01:15:00;;;;;;;5.83;2.50;;;15.20;99.90;;;;;;5074652;28;20408;-66
2023/06/27 01:17:28;;;;;;;8.17;3.70;;;15.20;99.90;;;;;;5074171;28;20388;-68
2023/06/27 01:19:55;;;;;;;5.57;3.00;;;15.10;99.90;;;;;;5074093;28;20473;-69
2023/06/27 01:22:30;;;;;;;5.77;3.17;;;15.10;99.90;;;;;;5083525;28;20887;-69
2023/06/27 01:25:00;;;;;;;18.93;3.33;;;15.10;99.90;;;;;;5090615;28;20474;-68
2023/06/27 01:27:28;;;;;;;9.20;3.73;;;15.10;99.90;;;;;;5093949;28;20760;-67
2023/06/27 01:29:54;;;;;;;4.03;3.30;;;15.10;99.90;;;;;;5094204;28;20979;-69
2023/06/27 01:32:19;;;;;;;4.60;3.10;;;15.10;99.90;;;;;;5093790;28;20431;-67
2023/06/27 01:35:01;;;;;;;5.83;3.10;;;15.10;99.90;;;;;;5076542;28;20470;-67
2023/06/27 01:37:33;;;;;;;7.17;3.20;;;15.00;99.90;;;;;;5089457;28;20207;-68
2023/06/27 01:40:02;;;;;;;7.83;2.90;;;15.00;99.90;;;;;;5091525;28;20441;-67
2023/06/27 01:42:34;;;;;;;9.10;3.10;;;15.00;99.90;;;;;;5093605;28;20398;-67
2023/06/27 01:45:02;;;;;;;8.70;3.30;;;15.00;99.90;;;;;;5093756;28;20447;-67
2023/06/27 01:47:28;;;;;;;3.77;3.20;;;15.00;99.90;;;;;;5094163;28;20487;-67
2023/06/27 01:49:55;;;;;;;8.53;3.30;;;15.00;99.90;;;;;;5084867;28;20460;-67
2023/06/27 01:52:21;;;;;;;7.13;3.40;;;14.90;99.90;;;;;;5093557;28;20949;-67
2023/06/27 01:54:47;;;;;;;10.27;3.50;;;14.80;99.90;;;;;;5093234;28;20427;-67
2023/06/27 01:57:13;;;;;;;3.73;3.00;;;14.70;99.90;;;;;;5074253;28;20606;-66
2023/06/27 01:59:39;;;;;;;11.43;3.60;;;14.80;99.90;;;;;;5073759;28;20428;-68
2023/06/27 02:02:05;;;;;;;8.83;3.43;;;14.60;99.90;;;;;;5072285;28;20162;-66
2023/06/27 02:04:31;;;;;;;5.37;3.57;;;14.60;99.90;;;;;;5062824;28;20473;-66
2023/06/27 02:06:57;;;;;;;4.47;3.33;;;14.70;99.90;;;;;;5091948;28;20804;-68
2023/06/27 02:09:23;;;;;;;6.07;3.40;;;14.70;99.90;;;;;;5092579;28;20184;-67
2023/06/27 02:11:48;;;;;;;9.33;3.93;;;14.70;99.90;;;;;;5090667;28;20612;-69
2023/06/27 02:14:14;;;;;;;9.53;3.40;;;14.60;99.90;;;;;;5073651;28;20403;-67
2023/06/27 02:16:40;;;;;;;9.03;3.43;;;14.50;99.90;;;;;;5073374;28;20173;-69
2023/06/27 02:19:05;;;;;;;7.00;3.60;;;14.50;99.90;;;;;;5087553;28;20182;-67
2023/06/27 02:21:31;;;;;;;9.60;3.60;;;14.40;99.90;;;;;;5092550;28;20245;-67
2023/06/27 02:23:57;;;;;;;5.80;2.63;;;14.50;99.90;;;;;;5093407;28;20188;-66
2023/06/27 02:26:22;;;;;;;6.70;3.00;;;14.50;99.90;;;;;;5093630;28;20174;-67
2023/06/27 02:28:48;;;;;;;6.53;3.30;;;14.50;99.90;;;;;;5092818;28;20549;-69
2023/06/27 02:31:14;;;;;;;6.37;3.60;;;14.50;99.90;;;;;;5075999;28;20192;-68
2023/06/27 02:33:39;;;;;;;11.03;2.90;;;14.50;99.90;;;;;;5092710;28;20550;-67
2023/06/27 02:36:06;;;;;;;8.80;3.60;;;14.50;99.90;;;;;;5092976;28;20169;-67
2023/06/27 02:38:32;;;;;;;5.83;2.93;;;14.50;99.90;;;;;;5093310;28;20253;-66
2023/06/27 02:40:58;;;;;;;4.17;2.80;;;14.50;99.90;;;;;;5091076;28;20514;-68
2023/06/27 02:43:23;;;;;;;11.87;3.63;;;14.50;99.90;;;;;;5089298;28;20197;-67
2023/06/27 02:45:49;;;;;;;5.50;3.00;;;14.40;99.90;;;;;;5092432;28;20177;-68
2023/06/27 02:48:15;;;;;;;12.30;2.97;;;14.40;99.90;;;;;;5073228;28;20182;-68
2023/06/27 02:50:41;;;;;;;9.63;3.30;;;14.30;99.90;;;;;;5071996;28;20683;-67
2023/06/27 02:53:07;;;;;;;6.33;4.00;;;14.30;99.90;;;;;;5072994;28;20178;-67
2023/06/27 02:55:33;;;;;;;6.13;2.70;;;14.30;99.90;;;;;;5082419;28;20386;-67
2023/06/27 02:57:59;;;;;;;7.80;2.83;;;14.20;99.90;;;;;;5092249;28;20229;-67
2023/06/27 03:00:24;;;;;;;6.30;2.97;;;14.30;99.90;;;;;;5092304;28;20264;-67
2023/06/27 03:02:50;;;;;;;3.60;3.03;;;14.20;99.90;;;;;;5071082;28;20208;-70
2023/06/27 03:05:16;;;;;;;13.33;3.87;;;14.30;99.90;;;;;;5093285;28;20178;-67
2023/06/27 03:07:41;;;;;;;3.40;3.10;;;14.30;99.90;;;;;;5092923;28;20166;-67
2023/06/27 03:10:07;;;;;;;6.73;4.07;;;14.30;99.90;;;;;;5073652;28;20189;-69
2023/06/27 03:12:33;;;;;;;5.03;2.97;;;14.20;99.90;;;;;;5091224;28;20223;-67
2023/06/27 03:14:59;;;;;;;6.90;2.93;;;14.20;99.90;;;;;;5092881;28;20394;-69
2023/06/27 03:17:25;;;;;;;9.03;2.90;;;14.30;99.90;;;;;;5092713;28;20619;-67
2023/06/27 03:19:50;;;;;;;5.13;2.37;;;14.20;99.90;;;;;;5091765;28;20637;-68
2023/06/27 03:22:16;;;;;;;8.00;2.63;;;14.20;99.90;;;;;;5072238;28;20408;-67
2023/06/27 03:24:42;;;;;;;13.00;3.30;;;14.20;99.90;;;;;;5072411;28;20245;-67
2023/06/27 03:27:08;;;;;;;3.90;2.47;;;14.20;99.90;;;;;;5072746;28;20169;-67
2023/06/27 03:29:33;;;;;;;8.20;2.67;;;14.30;99.90;;;;;;5091718;28;20576;-66
2023/06/27 03:31:59;;;;;;;9.80;2.70;;;14.30;99.90;;;;;;5088978;28;20486;-67
2023/06/27 03:34:25;;;;;;;9.83;3.10;;;14.40;99.90;;;;;;5096589;28;20178;-67
2023/06/27 03:36:51;;;;;;;7.07;2.90;;;14.40;99.90;;;;;;5096040;28;20169;-67
2023/06/27 03:39:16;;;;;;;4.47;2.63;;;14.30;99.90;;;;;;5083294;28;20247;-67
2023/06/27 03:41:42;;;;;;;9.03;2.57;;;14.30;99.90;;;;;;5077592;28;20742;-68
2023/06/27 03:44:08;;;;;;;10.30;3.27;;;14.20;99.90;;;;;;5095910;28;20185;-67
2023/06/27 03:46:35;;;;;;;5.90;2.13;;;14.30;1.00;;;;;;5096093;28;20205;-66
2023/06/27 03:49:00;;;;;;;6.30;2.80;;;14.40;1.00;;;;;;5077479;28;20438;-67
2023/06/27 03:51:27;;;;;;;7.73;2.67;;;14.40;1.00;;;;;;5095665;28;20542;-68
2023/06/27 03:53:53;;;;;;;3.97;2.40;;;14.50;1.00;;;;;;5093412;28;20215;-66
2023/06/27 03:56:19;;;;;;;2.80;2.47;;;14.50;1.00;;;;;;5094074;28;20420;-67
2023/06/27 03:58:44;;;;;;;9.43;2.70;;;14.60;1.00;;;;;;5095876;28;20715;-66
2023/06/27 04:01:11;;;;;;;4.13;3.27;;;14.50;1.00;;;;;;5095402;28;20884;-66
2023/06/27 04:03:37;;;;;;;6.03;2.20;;;14.40;1.00;;;;;;5095499;28;20185;-66
2023/06/27 04:06:03;;;;;;;7.00;2.43;;;14.40;1.00;;;;;;5096292;28;20399;-67
2023/06/27 04:08:29;;;;;;;8.93;2.43;;;14.40;1.00;;;;;;5094077;28;20192;-67
2023/06/27 04:10:54;;;;;;;9.47;3.40;;;14.40;1.00;;;;;;5075957;28;20628;-68
2023/06/27 04:13:20;;;;;;;7.63;2.33;;;14.50;1.00;;;;;;5095753;28;20685;-67
2023/06/27 04:15:46;;;;;;;7.30;3.50;;;14.50;1.00;;;;;;5095628;28;20166;-68
2023/06/27 04:18:11;;;;;;;8.57;2.93;;;14.50;1.00;;;;;;5077482;28;20252;-66
2023/06/27 04:20:37;;;;;;;9.40;2.63;;;14.60;1.00;;;;;;5093765;28;20203;-68
2023/06/27 04:23:03;;;;;;;8.17;2.63;;;14.70;1.00;;;;;;5092963;28;20256;-67
2023/06/27 04:25:33;;;;;;;8.50;3.30;;;14.70;1.00;;;;;;5092759;28;20178;-68
2023/06/27 04:27:59;;;;;;;6.23;2.70;;;14.80;1.00;;;;;;5094277;28;20622;-68
2023/06/27 04:30:25;;;;;;;5.90;2.33;;;14.80;1.00;;;;;;5074495;28;20481;-66
2023/06/27 04:32:50;;;;;;;13.43;2.70;;;14.90;1.00;;;;;;5057055;28;20409;-66
2023/06/27 04:35:19;;;;;;;6.27;2.60;;;14.80;1.00;;;;;;5081519;28;20485;-68
2023/06/27 04:37:46;;;;;;;8.30;2.87;;;14.90;1.00;;;;;;5077091;28;20650;-66
2023/06/27 04:40:12;;;;;;;7.63;2.77;;;15.00;1.00;;;;;;5093902;28;20433;-66
2023/06/27 04:42:38;;;;;;;7.03;2.63;;;15.00;1.00;;;;;;5095379;28;20408;-68
2023/06/27 04:45:04;;;;;;;10.20;2.83;;;15.10;1.00;;;;;;5092944;28;20477;-68
2023/06/27 04:47:30;;;;;;;5.80;2.43;;;15.10;1.00;;;;;;5081688;28;20394;-66
2023/06/27 04:49:55;;;;;;;5.27;2.07;;;15.20;1.00;;;;;;5073351;28;20439;-68
2023/06/27 04:52:21;;;;;;;6.87;2.60;;;15.30;1.00;;;;;;5076285;28;20499;-67
2023/06/27 04:54:51;;;;;;;3.27;3.00;;;15.40;1.00;;;;;;5095084;28;20215;-66
2023/06/27 04:57:17;;;;;;;4.60;2.00;;;15.40;1.00;;;;;;5094322;28;20162;-66
2023/06/27 04:59:44;;;;;;;9.27;2.70;;;15.50;1.00;;;;;;5077168;28;20428;-68
2023/06/27 05:02:09;;;;;;;8.33;2.47;;;15.50;1.00;;;;;;5073470;28;20818;-67
2023/06/27 05:04:35;;;;;;;7.87;3.23;;;15.60;1.00;;;;;;5084633;28;20431;-66
2023/06/27 05:07:01;;;;;;;5.80;2.73;;;15.70;1.00;;;;;;5093647;28;20666;-66
2023/06/27 05:09:27;;;;;;;9.00;2.77;;;15.80;1.00;;;;;;5094323;28;20381;-68
2023/06/27 05:11:53;;;;;;;7.60;4.03;;;15.80;1.00;;;;;;5062668;28;20209;-68
2023/06/27 05:14:18;;;;;;;7.73;4.80;;;15.90;99.90;;;;;;5074474;28;20421;-67
2023/06/27 05:16:44;;;;;;;8.70;2.00;;;15.90;99.90;;;;;;5081448;28;20269;-67
2023/06/27 05:19:10;;;;;;;5.30;2.53;;;16.00;99.90;;;;;;5107242;28;20169;-67
2023/06/27 05:21:36;;;;;;;11.70;2.30;;;16.10;99.90;;;;;;5089601;28;20228;-66
2023/06/27 05:24:05;;;;;;;6.40;2.10;;;16.10;99.90;;;;;;5093458;28;20205;-66
2023/06/27 05:26:32;;;;;;;5.17;2.07;;;16.10;99.90;;;;;;5094251;28;20888;-67
2023/06/27 05:28:59;;;;;;;9.50;3.13;;;16.10;99.90;;;;;;5094656;28;20371;-66
2023/06/27 05:31:26;;;;;;;6.23;3.10;;;16.20;99.90;;;;;;5093439;28;20443;-68
2023/06/27 05:33:52;;;;;;;2.80;2.60;;;16.20;99.90;;;;;;5086045;28;21022;-66
2023/06/27 05:36:17;;;;;;;3.50;2.30;;;16.30;99.90;;;;;;5068236;28;20507;-66
2023/06/27 05:38:43;;;;;;;5.10;2.20;;;16.20;99.90;;;;;;5076145;28;20169;-64
2023/06/27 05:41:09;;;;;;;3.00;2.00;;;16.20;99.90;;;;;;5092890;28;20170;-64
2023/06/27 05:43:35;;;;;;;8.47;2.33;;;16.30;99.90;;;;;;5093801;28;20204;-68
2023/06/27 05:46:01;;;;;;;5.50;2.00;;;16.30;99.90;;;;;;5094267;28;20888;-65
2023/06/27 05:48:26;;;;;;;5.87;2.50;;;16.30;99.90;;;;;;5088687;28;20544;-68
2023/06/27 05:50:52;;;;;;;3.30;2.00;;;16.30;99.90;;;;;;5087916;28;20284;-64
2023/06/27 05:53:18;;;;;;;3.87;2.20;;;16.40;99.90;;;;;;5088529;28;20194;-64
2023/06/27 05:55:44;;;;;;;10.10;3.47;;;16.40;99.90;;;;;;5073614;28;20174;-64
2023/06/27 05:58:09;;;;;;;10.27;2.57;;;16.50;99.90;;;;;;5075526;28;20177;-64
2023/06/27 06:00:35;;;;;;;10.53;2.30;;;16.60;99.90;;;;;;5072970;28;20235;-66
2023/06/27 06:03:00;;;;;;;8.93;2.67;;;16.70;99.90;;;;;;5093421;28;20205;-64
2023/06/27 06:05:26;;;;;;;4.87;2.27;;;16.70;99.90;;;;;;5091480;28;20182;-64
2023/06/27 06:07:52;;;;;;;6.47;2.30;;;16.70;99.90;;;;;;5093569;28;20256;-65
2023/06/27 06:10:18;;;;;;;11.70;2.40;;;16.80;99.90;;;;;;5087040;28;20280;-64
2023/06/27 06:12:44;;;;;;;8.80;2.10;;;16.80;99.90;;;;;;5090031;28;20177;-67
2023/06/27 06:15:10;;;;;;;10.77;2.93;;;16.90;99.90;;;;;;5093865;28;20399;-64
2023/06/27 06:17:36;;;;;;;4.53;3.00;;;16.90;99.90;;;;;;5093111;28;20165;-65
2023/06/27 06:20:03;;;;;;;5.40;2.17;;;17.00;99.90;;;;;;5093038;28;20177;-66
2023/06/27 06:22:29;;;;;;;5.40;2.57;;;17.10;99.90;;;;;;5093352;28;20166;-68
2023/06/27 06:24:55;;;;;;;5.47;2.53;;;17.20;99.90;;;;;;5091645;28;20499;-64
2023/06/27 06:27:21;;;;;;;6.50;2.20;;;17.30;99.90;;;;;;5090130;28;20435;-67
2023/06/27 06:29:47;;;;;;;7.13;2.53;;;17.30;99.90;;;;;;5092682;28;20182;-69
2023/06/27 06:32:12;;;;;;;4.13;2.00;;;17.30;99.90;;;;;;5091373;28;21291;-64
2023/06/27 06:34:38;;;;;;;12.50;3.57;;;17.30;99.90;;;;;;5093117;28;20508;-66
2023/06/27 06:37:04;;;;;;;3.80;2.10;;;17.30;99.90;;;;;;5076161;28;20185;-66
2023/06/27 06:39:30;;;;;;;4.40;2.60;;;17.30;99.90;;;;;;5089005;28;20173;-66
2023/06/27 06:41:55;;;;;;;3.50;1.70;;;17.40;99.90;;;;;;5085476;28;20181;-69
2023/06/27 06:44:21;;;;;;;8.77;2.10;;;17.40;99.90;;;;;;5088652;28;20226;-65
2023/06/27 06:46:47;;;;;;;6.57;2.10;;;17.40;99.90;;;;;;5073237;28;20174;-66
2023/06/27 06:49:12;;;;;;;9.57;1.90;;;17.50;99.90;;;;;;5074911;28;20178;-67
2023/06/27 06:51:38;;;;;;;8.93;2.10;;;17.60;99.90;;;;;;5087636;28;20646;-68
2023/06/27 06:54:04;;;;;;;2.13;1.83;;;17.70;99.90;;;;;;5099307;28;20181;-67
2023/06/27 06:56:29;;;;;;;11.00;2.10;;;17.80;99.90;;;;;;5106963;28;20158;-68
2023/06/27 06:58:55;;;;;;;3.87;1.83;;;18.00;99.90;;;;;;5106702;28;20237;-68
2023/06/27 07:01:21;;;;;;;3.73;1.50;;;18.00;99.90;;;;;;5107018;28;20165;-65
2023/06/27 07:03:46;;;;;;;5.33;1.53;;;18.10;99.90;;;;;;5111003;28;20201;-66
2023/06/27 07:06:12;;;;;;;8.93;1.90;;;18.20;99.90;;;;;;5110144;28;20192;-70
2023/06/27 07:08:38;;;;;;;4.63;1.63;;;18.10;99.90;;;;;;5073060;28;20446;-65
2023/06/27 07:11:04;;;;;;;5.60;2.20;;;18.10;99.90;;;;;;5089098;28;20202;-67
2023/06/27 07:13:30;;;;;;;4.87;1.83;;;18.20;99.90;;;;;;5090476;28;20416;-65
2023/06/27 07:15:55;;;;;;;5.17;1.33;;;18.30;99.90;;;;;;5089769;28;20158;-66
2023/06/27 07:18:21;;;;;;;4.33;2.10;;;18.40;99.90;;;;;;5090310;28;20162;-66
2023/06/27 07:20:47;;;;;;;2.43;1.40;;;18.40;99.90;;;;;;5101842;28;20233;-66
2023/06/27 07:23:15;;;;;;;5.27;1.40;;;18.40;99.90;;;;;;5110665;28;20264;-66
2023/06/27 07:25:41;;;;;;;3.43;1.20;;;18.40;99.90;;;;;;5110796;28;20161;-65
2023/06/27 07:28:07;;;;;;;4.23;1.53;;;18.40;99.90;;;;;;5110096;28;20411;-66
2023/06/27 07:30:32;;;;;;;4.70;1.43;;;18.40;99.90;;;;;;5109454;28;20205;-66
2023/06/27 07:32:58;;;;;;;6.43;1.90;;;18.50;99.90;;;;;;5110176;28;20150;-66
2023/06/27 07:35:24;;;;;;;4.20;1.90;;;18.60;99.90;;;;;;5108625;28;20180;-66
2023/06/27 07:37:50;;;;;;;5.83;2.33;;;18.60;99.90;;;;;;5092129;28;20290;-65
2023/06/27 07:40:15;;;;;;;3.90;1.60;;;18.70;99.90;;;;;;5097284;28;20233;-65
2023/06/27 07:42:41;;;;;;;8.80;1.80;;;18.70;99.90;;;;;;5110241;28;20361;-65
2023/06/27 07:45:07;;;;;;;5.57;1.77;;;18.60;99.90;;;;;;5091942;28;20185;-65
2023/06/27 07:47:33;;;;;;;5.07;2.53;;;18.60;99.90;;;;;;5109891;28;20222;-66
2023/06/27 07:49:59;;;;;;;2.03;1.90;;;18.70;99.90;;;;;;5109885;28;20403;-65
2023/06/27 07:52:25;;;;;;;5.57;1.73;;;18.80;99.90;;;;;;5091536;28;20172;-65
2023/06/27 07:54:50;;;;;;;4.00;1.77;;;19.00;99.90;;;;;;5109171;28;20364;-65
2023/06/27 07:57:16;;;;;;;5.80;1.90;;;19.20;99.90;;;;;;5110087;28;20174;-65
2023/06/27 07:59:42;;;;;;;4.40;2.80;;;19.20;99.90;;;;;;5109134;28;20204;-65
2023/06/27 08:02:07;;;;;;;5.83;1.97;;;19.20;99.90;;;;;;5108766;28;20278;-65
2023/06/27 08:04:33;;;;;;;2.63;1.30;;;19.30;99.90;;;;;;5109496;28;20186;-67
2023/06/27 08:06:59;;;;;;;4.40;1.47;;;19.40;99.90;;;;;;5109463;28;20319;-65
2023/06/27 08:09:24;;;;;;;7.20;2.90;;;19.50;99.90;;;;;;5109850;28;20205;-67
2023/06/27 08:11:51;;;;;;;6.97;1.67;;;19.30;99.90;;;;;;5091035;28;20215;-65
2023/06/27 08:14:17;;;;;;;3.60;1.40;;;19.40;99.90;;;;;;5108335;28;20235;-66
2023/06/27 08:16:43;;;;;;;7.20;2.57;;;19.50;99.90;;;;;;5109679;28;20408;-65
2023/06/27 08:19:08;;;;;;;3.37;1.60;;;19.40;99.90;;;;;;5109397;28;20154;-67
2023/06/27 08:21:34;;;;;;;5.53;1.50;;;19.40;99.90;;;;;;5108500;28;20415;-64
2023/06/27 08:24:00;;;;;;;1.90;1.43;;;19.30;99.90;;;;;;5109009;28;20185;-65
2023/06/27 08:26:26;;;;;;;9.07;1.67;;;19.20;99.90;;;;;;5108948;28;20385;-66
2023/06/27 08:28:52;;;;;;;2.63;1.30;;;19.40;99.90;;;;;;5109304;28;20422;-67
2023/06/27 08:31:18;;;;;;;1.50;1.00;;;19.50;99.90;;;;;;5108505;28;20196;-66
2023/06/27 08:33:43;;;;;;;3.40;1.67;;;19.80;99.90;;;;;;5109185;28;21044;-65
2023/06/27 08:36:09;;;;;;;6.13;1.20;;;20.00;99.90;;;;;;5109122;28;20158;-67
2023/06/27 08:38:35;;;;;;;3.20;1.57;;;20.10;99.90;;;;;;5108574;28;20169;-65
2023/06/27 08:41:01;;;;;;;3.10;1.70;;;19.90;99.90;;;;;;5107745;28;20174;-67
2023/06/27 08:43:27;;;;;;;1.70;1.20;;;20.00;99.90;;;;;;5109067;28;20467;-65
2023/06/27 08:45:54;;;;;;;4.47;1.30;;;20.00;99.90;;;;;;5109176;28;20432;-65
2023/06/27 08:48:21;;;;;;;2.90;1.40;;;19.80;99.90;;;;;;5109034;28;20410;-66
2023/06/27 08:50:52;;;;;;;2.80;1.73;;;19.70;99.90;;;;;;5108268;28;20544;-66
2023/06/27 08:53:20;;;;;;;5.33;2.00;;;19.90;99.90;;;;;;5108725;28;20456;-66
2023/06/27 08:56:03;;;;;;;6.20;1.53;;;20.10;99.90;;;;;;5107943;28;20465;-66
2023/06/27 08:58:37;;;;;;;1.57;1.10;;;20.40;99.90;;;;;;5108279;28;20503;-65
2023/06/27 09:01:03;;;;;;;2.67;1.10;;;20.50;99.90;;;;;;5107837;28;20400;-66
2023/06/27 09:03:29;;;;;;;2.60;1.33;;;20.80;99.90;;;;;;5108746;28;20664;-65
2023/06/27 09:05:55;;;;;;;2.60;1.00;;;21.10;99.90;;;;;;5108737;28;20538;-65
2023/06/27 09:08:22;;;;;;;15.60;2.47;;;21.20;99.90;;;;;;5107672;28;20560;-65
2023/06/27 09:10:48;;;;;;;6.73;1.60;;;21.10;99.90;;;;;;5107717;28;20526;-65
2023/06/27 09:13:14;;;;;;;5.57;1.20;;;21.20;99.90;;;;;;5106767;28;20471;-66
2023/06/27 09:15:40;;;;;;;3.80;1.10;;;21.20;99.90;;;;;;5108218;28;20165;-65
2023/06/27 09:18:05;;;;;;;2.47;1.27;;;21.00;99.90;;;;;;5108583;28;20404;-65
2023/06/27 09:20:32;;;;;;;3.93;1.00;;;21.00;99.90;;;;;;5089840;28;20157;-66
2023/06/27 09:23:01;;;;;;;2.93;1.67;;;21.20;99.90;;;;;;5108418;28;20154;-65
2023/06/27 09:25:27;;;;;;;8.03;1.40;;;21.30;99.90;;;;;;5107148;28;20487;-66
2023/06/27 09:27:53;;;;;;;2.50;1.30;;;21.50;99.90;;;;;;5107693;28;20431;-66
2023/06/27 09:30:19;;;;;;;3.10;1.50;;;21.80;99.90;;;;;;5107411;28;20216;-65
2023/06/27 09:32:55;;;;;;;2.33;1.20;;;21.90;99.90;;;;;;5100551;28;20482;-67
2023/06/27 09:35:23;;;;;;;1.97;1.33;;;21.90;99.90;;;;;;5079206;28;20505;-67
2023/06/27 09:37:52;;;;;;;1.83;0.93;;;21.90;99.90;;;;;;5092268;28;20416;-66
2023/06/27 09:40:24;;;;;;;1.77;1.13;;;21.90;99.90;;;;;;5107276;28;20418;-66
2023/06/27 09:42:52;;;;;;;1.30;0.93;;;22.10;99.90;;;;;;5107556;28;20415;-67
2023/06/27 09:45:19;;;;;;;2.30;1.00;;;22.70;99.90;;;;;;5107678;28;20620;-69
2023/06/27 09:47:54;;;;;;;3.20;1.43;;;22.90;99.90;;;;;;5085057;28;20499;-69
2023/06/27 09:50:28;;;;;;;3.93;0.90;;;22.70;99.90;;;;;;5083771;28;20438;-67
2023/06/27 09:52:59;;;;;;;4.90;1.43;;;22.30;99.90;;;;;;5083404;28;20186;-66
2023/06/27 09:55:25;;;;;;;2.80;1.20;;;21.80;99.90;;;;;;5084597;28;20628;-65
2023/06/27 09:57:52;;;;;;;5.93;4.00;;;21.80;99.90;;;;;;5084639;28;20558;-65
2023/06/27 10:00:22;;;;;;;3.30;1.23;;;22.00;99.90;;;;;;5083752;28;20373;-68
2023/06/27 10:02:51;;;;;;;1.70;1.17;;;22.50;99.90;;;;;;5084406;28;20491;-68
2023/06/27 10:05:19;;;;;;;2.90;1.50;;;23.00;99.90;;;;;;5075327;28;20417;-69
2023/06/27 10:07:48;;;;;;;2.00;1.10;;;23.30;99.90;;;;;;5065379;28;20445;-67
2023/06/27 10:10:14;;;;;;;2.90;0.97;;;23.00;99.90;;;;;;5063136;28;20642;-68
2023/06/27 10:12:42;;;;;;;1.50;1.07;;;22.70;99.90;;;;;;5064434;28;20374;-68
2023/06/27 10:15:08;;;;;;;3.33;1.30;;;22.70;99.90;;;;;;5064356;28;20386;-67
2023/06/27 10:17:34;;;;;;;4.00;1.23;;;22.70;99.90;;;;;;5064332;28;20391;-68
2023/06/27 10:20:00;;;;;;;8.27;1.30;;;22.30;99.90;;;;;;5074996;28;20491;-66
2023/06/27 10:22:31;;;;;;;2.23;1.17;;;21.80;99.90;;;;;;5083581;28;20208;-65
2023/06/27 10:25:01;;;;;;;2.67;1.40;;;21.50;99.90;;;;;;5084026;28;20456;-66
2023/06/27 10:27:31;;;;;;;3.40;1.20;;;21.30;99.90;;;;;;5082271;28;20447;-65
2023/06/27 10:29:57;;;;;;;3.90;1.60;;;20.90;99.90;;;;;;5082745;28;20447;-66
2023/06/27 10:32:40;;;;;;;3.10;1.70;;;20.40;99.90;;;;;;5082943;28;20377;-68
2023/06/27 10:35:11;;;;;;;8.20;1.63;;;20.00;99.90;;;;;;5078770;28;20257;-70
2023/06/27 10:37:40;;;;;;;3.40;1.73;;;19.30;99.90;;;;;;5083743;28;20411;-71
2023/06/27 10:40:09;;;;;;;3.10;1.50;;;18.90;99.90;;;;;;5083008;28;20587;-74
2023/06/27 10:42:35;;;;;;;5.10;1.97;;;18.80;99.90;;;;;;5083456;28;20393;-69
2023/06/27 10:45:04;;;;;;;3.20;1.73;;;18.60;99.90;;;;;;5082617;28;20416;-71
2023/06/27 10:47:34;;;;;;;3.70;1.50;;;18.40;99.90;;;;;;5082167;28;20436;-72
2023/06/27 10:50:14;;;;;;;4.23;1.63;;;18.30;99.90;;;;;;5083234;28;20597;-69
2023/06/27 10:52:59;;;;;;;2.33;1.87;;;18.10;99.90;;;;;;5083894;28;20478;-69
2023/06/27 10:55:28;;;;;;;2.43;1.67;;;18.00;99.90;;;;;;5083825;28;20653;-71
2023/06/27 10:58:10;;;;;;;6.50;2.60;;;17.80;99.90;;;;;;5077684;28;20377;-70
2023/06/27 11:00:41;;;;;;;5.23;1.77;;;17.40;99.90;;;;;;5067516;28;20404;-69
2023/06/27 11:03:08;;;;;;;3.30;1.33;;;17.10;99.90;;;;;;5050353;28;20426;-68
2023/06/27 11:05:57;;;;;;;2.40;1.27;;;17.00;99.90;;;;;;5064868;28;20401;-68
2023/06/27 11:08:27;;;;;;;2.43;1.90;;;16.80;99.90;;;;;;5070336;28;20369;-68
2023/06/27 11:10:59;;;;;;;4.03;1.80;;;16.80;99.90;;;;;;5069563;28;20370;-70
2023/06/27 11:13:27;;;;;;;5.00;2.60;;;16.60;99.90;;;;;;5069488;28;20591;-69
2023/06/27 11:15:54;;;;;;;10.03;1.50;;;16.60;99.90;;;;;;5070148;28;20373;-67
2023/06/27 11:18:21;;;;;;;4.23;2.30;;;16.90;99.90;;;;;;5054589;28;20426;-68
2023/06/27 11:20:49;;;;;;;2.87;1.77;;;17.60;99.90;;;;;;5049127;28;20371;-68
2023/06/27 11:23:16;;;;;;;2.50;1.37;;;18.70;99.90;;;;;;5050087;28;20448;-65
2023/06/27 11:25:46;;;;;;;4.00;1.57;;;19.70;99.90;;;;;;5062665;28;20410;-66
2023/06/27 11:28:15;;;;;;;2.77;1.23;;;20.40;99.90;;;;;;5050097;28;20439;-67
2023/06/27 11:30:41;;;;;;;3.27;1.73;;;21.00;99.90;;;;;;5049290;28;20382;-67
2023/06/27 11:33:07;;;;;;;3.80;1.20;;;21.60;99.90;;;;;;5063812;28;20424;-68
2023/06/27 11:35:37;;;;;;;1.83;1.60;;;22.10;99.90;;;;;;5069735;28;20384;-67
2023/06/27 11:38:08;;;;;;;1.30;1.00;;;22.50;99.90;;;;;;5065670;28;20577;-65
2023/06/27 11:40:34;;;;;;;2.63;1.40;;;22.80;99.90;;;;;;5049419;28;20468;-67
2023/06/27 11:43:07;;;;;;;1.40;1.30;;;23.00;99.90;;;;;;5048972;28;20535;-67
2023/06/27 11:45:36;;;;;;;5.10;1.40;;;23.00;99.90;;;;;;5048700;28;20390;-67
2023/06/27 11:48:02;;;;;;;1.87;1.20;;;23.10;99.90;;;;;;5049546;28;20386;-70
2023/06/27 11:50:28;;;;;;;4.37;1.27;;;23.30;99.90;;;;;;5048870;28;20603;-69
2023/06/27 11:52:58;;;;;;;3.67;1.47;;;23.70;99.90;;;;;;5049004;28;20710;-67
2023/06/27 11:55:24;;;;;;;1.50;1.40;;;24.50;99.90;;;;;;5067109;28;20690;-69
2023/06/27 11:57:55;;;;;;;2.80;1.03;;;24.40;99.90;;;;;;5069363;28;20439;-65
2023/06/27 12:00:23;;;;;;;2.80;1.00;;;24.90;99.90;;;;;;5068381;28;20448;-69
2023/06/27 12:02:49;;;;;;;3.37;1.00;;;25.50;99.90;;;;;;5069123;28;20461;-65
2023/06/27 12:05:17;;;;;;;1.83;0.80;;;25.80;99.90;;;;;;5069314;28;20377;-66
2023/06/27 12:07:54;;;;;;;3.90;1.10;;;25.70;99.90;;;;;;5067493;28;20455;-65
2023/06/27 12:10:20;;;;;;;1.10;0.83;;;26.10;99.90;;;;;;5046369;28;20582;-66
2023/06/27 12:12:46;;;;;;;3.03;1.00;;;26.60;99.90;;;;;;5064627;28;20402;-69
2023/06/27 12:15:14;;;;;;;5.97;1.17;;;26.80;99.90;;;;;;5052949;28;20407;-68
2023/06/27 12:17:55;;;;;;;3.17;1.23;;;27.20;99.90;;;;;;5048730;28;20148;-68
2023/06/27 12:20:21;;;;;;;4.07;0.90;;;27.20;99.90;;;;;;5066034;28;20437;-67
2023/06/27 12:22:47;;;;;;;4.23;1.27;;;27.20;99.90;;;;;;5068724;28;20602;-65
2023/06/27 12:25:12;;;;;;;7.33;1.10;;;27.10;99.90;;;;;;5069068;28;20374;-69
2023/06/27 12:27:38;;;;;;;12.10;1.90;;;26.10;99.90;;;;;;5068758;28;20193;-65
2023/06/27 12:30:07;;;;;;;4.70;2.00;;;25.90;99.90;;;;;;5067794;28;20174;-71
2023/06/27 12:32:33;;;;;;;3.60;1.10;;;26.10;99.90;;;;;;5068822;28;20147;-67
2023/06/27 12:34:58;;;;;;;3.50;1.00;;;25.60;99.90;;;;;;5066589;28;20472;-65
2023/06/27 12:37:24;;;;;;;4.50;0.80;;;25.10;99.90;;;;;;5068584;28;20159;-68
2023/06/27 12:39:50;;;;;;;3.20;1.27;;;24.90;99.90;;;;;;5068190;28;20170;-65
2023/06/27 12:42:15;;;;;;;7.70;1.10;;;24.30;99.90;;;;;;5067180;28;20178;-69
2023/06/27 12:44:44;;;;;;;3.50;1.33;;;23.60;99.90;;;;;;5068540;28;20174;-66
2023/06/27 12:47:10;;;;;;;1.67;1.20;;;23.30;99.90;;;;;;5067882;28;20220;-64
2023/06/27 12:49:35;;;;;;;2.70;1.30;;;23.40;99.90;;;;;;5051949;28;20672;-64